createdAt,value
2018-11-13T00:01:33.546Z,39.60
2018-11-13T00:06:52.114Z,41.37
2018-11-13T00:12:11.569Z,44.00
2018-11-13T00:17:31.415Z,46.37
2018-11-13T00:22:50.675Z,48.40
2018-11-13T00:28:09.242Z,42.67
2018-11-13T00:33:27.829Z,39.17
2018-11-13T00:38:47.792Z,42.93
2018-11-13T00:44:07.231Z,48.57
2018-11-13T00:49:27.046Z,50.00
2018-11-13T00:54:45.459Z,51.53
2018-11-13T01:00:05.572Z,50.13
2018-11-13T01:05:24.229Z,53.93
2018-11-13T01:10:42.785Z,51.40
2018-11-13T01:16:01.428Z,53.53
2018-11-13T01:21:26.964Z,54.27
2018-11-13T01:26:46.538Z,51.27
2018-11-13T01:32:06.163Z,45.50
2018-11-13T01:37:26.000Z,57.93
2018-11-13T01:42:45.498Z,61.00
2018-11-13T01:48:04.246Z,54.63
2018-11-13T01:53:22.792Z,57.03
2018-11-13T01:58:41.872Z,54.53
2018-11-13T02:04:00.647Z,55.90
2018-11-13T02:09:19.322Z,57.80
2018-11-13T02:14:38.666Z,56.87
2018-11-13T02:19:57.543Z,51.13
2018-11-13T02:25:18.137Z,50.98
2018-11-13T02:30:37.128Z,59.07
2018-11-13T02:35:55.968Z,50.67
2018-11-13T02:41:14.728Z,58.93
2018-11-13T02:46:33.260Z,44.63
2018-11-13T02:51:51.853Z,57.50
2018-11-13T02:57:10.455Z,60.83
2018-11-13T03:02:30.066Z,65.47
2018-11-13T03:07:48.682Z,68.40
2018-11-13T03:13:07.452Z,61.50
2018-11-13T03:18:26.042Z,59.80
2018-11-13T03:23:44.946Z,61.27
2018-11-13T03:29:04.201Z,57.73
2018-11-13T03:34:22.751Z,43.87
2018-11-13T03:39:41.524Z,39.63
2018-11-13T03:45:00.067Z,42.77
2018-11-13T03:50:21.706Z,36.48
2018-11-13T03:55:40.295Z,46.20
2018-11-13T04:00:58.890Z,39.63
2018-11-13T04:06:17.824Z,36.53
2018-11-13T04:11:37.099Z,36.67
2018-11-13T04:16:55.669Z,33.37
2018-11-13T04:22:14.356Z,28.27
2018-11-13T04:27:32.963Z,24.20
2018-11-13T04:32:51.604Z,23.13
2018-11-13T04:38:10.767Z,28.00
2018-11-13T04:43:29.324Z,22.80
2018-11-13T04:48:47.948Z,21.00
2018-11-13T04:54:06.704Z,17.60
2018-11-13T04:59:25.339Z,17.47
2018-11-13T05:04:43.903Z,13.23
2018-11-13T05:10:03.743Z,14.30
2018-11-13T05:15:22.985Z,12.23
2018-11-13T05:20:41.544Z,12.33
2018-11-13T05:26:00.121Z,9.97
2018-11-13T05:31:18.824Z,14.83
2018-11-13T05:36:38.221Z,11.50
2018-11-13T05:41:56.837Z,10.37
2018-11-13T05:47:16.571Z,11.30
2018-11-13T05:52:35.798Z,10.57
2018-11-13T05:57:54.544Z,6.43
2018-11-13T06:03:13.151Z,8.37
2018-11-13T06:08:31.767Z,8.60
2018-11-13T06:13:50.284Z,8.13
2018-11-13T06:19:11.699Z,12.13
2018-11-13T06:24:31.586Z,11.97
2018-11-13T06:29:50.239Z,6.37
2018-11-13T06:35:10.378Z,6.23
2018-11-13T06:40:29.798Z,6.85
2018-11-13T06:45:49.135Z,10.07
2018-11-13T06:51:07.656Z,7.13
2018-11-13T06:56:27.338Z,7.10
2018-11-13T07:01:45.862Z,8.40
2018-11-13T07:07:04.584Z,10.73
2018-11-13T07:12:23.889Z,6.67
2018-11-13T07:17:44.272Z,7.67
2018-11-13T07:23:03.412Z,10.20
2018-11-13T07:28:28.412Z,10.90
2018-11-13T07:33:46.977Z,9.93
2018-11-13T07:39:08.822Z,6.87
2018-11-13T07:44:27.859Z,6.00
2018-11-13T07:49:46.407Z,10.97
2018-11-13T07:55:06.404Z,11.33
2018-11-13T08:00:25.809Z,8.27
2018-11-13T08:05:44.486Z,6.77
2018-11-13T08:11:04.239Z,6.42
2018-11-13T08:16:23.540Z,9.00
2018-11-13T08:21:42.684Z,9.77
2018-11-13T08:27:02.069Z,8.70
2018-11-13T08:32:21.279Z,20.67
2018-11-13T08:37:39.834Z,8.23
2018-11-13T08:42:58.368Z,7.57
2018-11-13T08:48:16.959Z,5.87
2018-11-13T08:53:35.636Z,7.93
2018-11-13T08:58:54.326Z,9.57
2018-11-13T09:04:12.825Z,9.83
2018-11-13T09:09:31.403Z,7.20
2018-11-13T09:14:50.014Z,9.67
2018-11-13T09:20:10.909Z,14.43
2018-11-13T09:25:29.607Z,11.13
2018-11-13T09:30:49.027Z,8.00
2018-11-13T09:36:07.524Z,5.70
2018-11-13T09:41:26.053Z,7.63
2018-11-13T09:46:44.596Z,8.60
2018-11-13T09:52:03.151Z,9.70
2018-11-13T09:57:21.715Z,12.97
2018-11-13T10:02:40.991Z,16.27
2018-11-13T10:07:59.454Z,8.03
2018-11-13T10:13:18.515Z,15.47
2018-11-13T10:18:37.102Z,8.48
2018-11-13T10:23:55.688Z,7.97
2018-11-13T10:29:14.331Z,11.53
2018-11-13T10:34:34.086Z,14.73
2018-11-13T10:39:52.862Z,7.00
2018-11-13T10:45:16.526Z,10.35
2018-11-13T10:50:35.059Z,7.75
2018-11-13T10:55:53.748Z,8.20
2018-11-13T11:01:17.515Z,12.27
2018-11-13T11:06:36.831Z,7.43
2018-11-13T11:11:55.443Z,11.33
2018-11-13T11:17:14.414Z,2.90
2018-11-13T11:22:34.527Z,8.90
2018-11-13T11:27:53.767Z,12.30
2018-11-13T11:33:12.972Z,8.50
2018-11-13T11:38:33.218Z,8.60
2018-11-13T11:43:52.064Z,5.53
2018-11-13T11:49:10.624Z,9.73
2018-11-13T11:54:29.248Z,3.87
2018-11-13T11:59:48.553Z,6.03
2018-11-13T12:05:08.268Z,5.80
2018-11-13T12:10:26.904Z,5.10
2018-11-13T12:15:46.204Z,4.33
2018-11-13T12:21:04.895Z,5.60
2018-11-13T12:26:23.563Z,10.27
2018-11-13T12:31:42.173Z,9.37
2018-11-13T12:37:01.056Z,6.97
2018-11-13T12:42:19.650Z,9.20
2018-11-13T12:47:38.344Z,6.23
2018-11-13T12:52:57.488Z,11.13
2018-11-13T12:58:16.939Z,5.10
2018-11-13T13:03:35.690Z,7.03
2018-11-13T13:08:54.266Z,6.83
2018-11-13T13:14:13.950Z,6.20
2018-11-13T13:19:32.971Z,9.47
2018-11-13T13:24:52.447Z,7.80
2018-11-13T13:30:15.258Z,11.47
2018-11-13T13:35:44.554Z,11.17
2018-11-13T13:41:04.492Z,6.97
2018-11-13T13:46:24.478Z,17.73
2018-11-13T13:51:43.075Z,9.77
2018-11-13T13:57:01.845Z,15.43
2018-11-13T14:02:21.093Z,7.87
2018-11-13T14:07:39.993Z,8.87
2018-11-13T14:12:58.715Z,6.30
2018-11-13T14:18:17.310Z,9.57
2018-11-13T14:23:35.962Z,6.13
2018-11-13T14:28:54.590Z,5.43
2018-11-13T14:34:13.249Z,10.20
2018-11-13T14:39:31.898Z,23.60
2018-11-13T14:44:50.538Z,10.40
2018-11-13T14:50:11.766Z,10.13
2018-11-13T14:55:34.175Z,8.37
2018-11-13T15:00:52.764Z,9.37
2018-11-13T15:06:11.432Z,8.20
2018-11-13T15:11:29.979Z,8.80
2018-11-13T15:16:48.528Z,4.67
2018-11-13T15:22:07.680Z,6.87
2018-11-13T15:27:26.606Z,6.33
2018-11-13T15:32:46.793Z,11.20
2018-11-13T15:38:05.975Z,7.17
2018-11-13T15:43:24.570Z,14.53
2018-11-13T15:48:43.337Z,10.43
2018-11-13T15:54:01.972Z,10.63
2018-11-13T15:59:20.744Z,11.27
2018-11-13T16:04:39.317Z,7.13
2018-11-13T16:10:00.507Z,6.93
2018-11-13T16:15:20.439Z,10.80
2018-11-13T16:20:38.958Z,7.42
2018-11-13T16:25:57.494Z,7.67
2018-11-13T16:31:16.151Z,6.07
2018-11-13T16:36:34.842Z,7.20
2018-11-13T16:41:53.239Z,7.77
2018-11-13T16:47:11.811Z,6.40
2018-11-13T16:52:30.432Z,8.47
2018-11-13T16:57:50.531Z,13.10
2018-11-13T17:03:10.046Z,14.50
2018-11-13T17:08:28.760Z,6.10
2018-11-13T17:13:47.425Z,10.27
2018-11-13T17:19:06.041Z,9.50
2018-11-13T17:24:25.113Z,7.03
2018-11-13T17:29:43.685Z,8.07
2018-11-13T17:35:02.224Z,15.55
2018-11-13T17:40:25.043Z,10.53
2018-11-13T17:45:43.594Z,13.73
2018-11-13T17:51:02.134Z,8.83
2018-11-13T17:56:20.810Z,11.47
2018-11-13T18:01:40.808Z,10.90
2018-11-13T18:06:59.607Z,9.90
2018-11-13T18:12:18.640Z,13.13
2018-11-13T18:17:37.222Z,11.63
2018-11-13T18:22:55.784Z,14.80
2018-11-13T18:28:14.425Z,11.40
2018-11-13T18:33:33.343Z,9.33
2018-11-13T18:38:51.985Z,12.73
2018-11-13T18:44:10.374Z,15.13
2018-11-13T18:49:29.939Z,9.00
2018-11-13T18:54:48.679Z,9.83
2018-11-13T19:00:10.153Z,19.80
2018-11-13T19:05:29.542Z,14.13
2018-11-13T19:10:49.186Z,12.00
2018-11-13T19:16:09.531Z,15.07
2018-11-13T19:21:28.155Z,13.60
2018-11-13T19:26:46.814Z,16.67
2018-11-13T19:32:05.483Z,19.77
2018-11-13T19:37:24.193Z,12.07
2018-11-13T19:42:43.513Z,8.57
2018-11-13T19:48:02.882Z,14.40
2018-11-13T19:53:21.459Z,11.77
2018-11-13T19:58:40.013Z,15.40
2018-11-13T20:03:58.560Z,9.03
2018-11-13T20:09:17.742Z,15.03
2018-11-13T20:14:38.345Z,24.10
2018-11-13T20:19:56.894Z,17.37
2018-11-13T20:25:16.764Z,12.98
2018-11-13T20:30:36.693Z,9.60
2018-11-13T20:35:56.848Z,15.20
2018-11-13T20:41:15.367Z,16.50
2018-11-13T20:46:34.222Z,11.03
2018-11-13T20:51:53.290Z,8.43
2018-11-13T20:57:11.812Z,14.70
2018-11-13T21:02:30.363Z,12.83
2018-11-13T21:07:49.618Z,14.87
2018-11-13T21:13:09.055Z,10.97
2018-11-13T21:18:27.588Z,13.57
2018-11-13T21:23:46.214Z,16.53
2018-11-13T21:29:04.766Z,12.13
2018-11-13T21:34:23.348Z,12.97
2018-11-13T21:39:42.560Z,10.13
2018-11-13T21:45:01.596Z,12.77
2018-11-13T21:50:21.570Z,14.58
2018-11-13T21:55:40.641Z,13.50
2018-11-13T22:00:59.879Z,10.70
2018-11-13T22:06:18.487Z,14.90
2018-11-13T22:11:37.056Z,17.62
2018-11-13T22:16:55.682Z,17.27
2018-11-13T22:22:14.186Z,21.50
2018-11-13T22:27:32.807Z,11.30
2018-11-13T22:32:52.241Z,13.13
2018-11-13T22:38:11.439Z,14.57
2018-11-13T22:43:30.032Z,13.20
2018-11-13T22:48:48.607Z,13.43
2018-11-13T22:54:07.122Z,11.43
2018-11-13T22:59:25.762Z,16.37
2018-11-13T23:04:44.280Z,17.17
2018-11-13T23:10:02.882Z,17.17
2018-11-13T23:15:22.326Z,18.37
2018-11-13T23:20:41.967Z,11.50
2018-11-13T23:26:00.785Z,15.63
2018-11-13T23:31:19.351Z,12.63
2018-11-13T23:36:37.882Z,14.93
2018-11-13T23:41:57.724Z,15.83
2018-11-13T23:47:17.595Z,10.60
2018-11-13T23:52:35.689Z,13.47
2018-11-13T23:57:54.177Z,14.17
